Time;durP1;ratioP1;P1;durP2;ratioP2;P2;SDS_P1;SDS_P2;PMS_P1;PMS_P2;Temp;Humidity;BMP_temperature;BMP_pressure;BME280_temperature;BME280_humidity;BME280_pressure;Samples;Min_cycle;Max_cycle;Signal;HPM_P1;HPM_P2
2022/10/26 00:02:05;;;;;;;;;0.00;0.00;;;;;;;;4729679;30;28473;-93
2022/10/26 00:04:30;;;;;;;;;0.00;0.00;;;;;;;;4729664;30;30031;-92
2022/10/26 00:06:55;;;;;;;;;0.00;0.00;;;;;;;;4738108;30;28622;-93
2022/10/26 00:09:20;;;;;;;;;0.00;0.00;;;;;;;;4749087;30;28636;-92
2022/10/26 00:11:46;;;;;;;;;0.00;0.00;;;;;;;;4749983;30;28422;-93
2022/10/26 00:14:11;;;;;;;;;0.00;0.00;;;;;;;;4749723;30;30073;-92
2022/10/26 00:16:36;;;;;;;;;0.00;0.00;;;;;;;;4748676;30;28537;-93
2022/10/26 00:19:01;;;;;;;;;0.00;0.00;;;;;;;;4750426;30;28598;-92
2022/10/26 00:21:26;;;;;;;;;6.00;6.00;;;;;;;;4734877;30;28486;-92
2022/10/26 00:23:52;;;;;;;;;0.00;0.00;;;;;;;;4734140;30;29650;-91
2022/10/26 00:26:17;;;;;;;;;0.00;0.00;;;;;;;;4734701;30;28820;-93
2022/10/26 00:28:42;;;;;;;;;0.00;0.00;;;;;;;;4734742;30;28420;-93
2022/10/26 00:31:12;;;;;;;;;0.00;0.00;;;;;;;;4750663;30;28320;-92
2022/10/26 00:33:37;;;;;;;;;0.00;0.00;;;;;;;;4734500;30;30146;-92
2022/10/26 00:36:02;;;;;;;;;0.00;0.00;;;;;;;;4734962;30;28560;-91
2022/10/26 00:38:27;;;;;;;;;0.00;0.00;;;;;;;;4734125;30;28012;-93
2022/10/26 00:40:53;;;;;;;;;0.00;0.00;;;;;;;;4734682;30;28582;-92
2022/10/26 00:43:22;;;;;;;;;0.00;0.00;;;;;;;;4734974;30;31010;-93
2022/10/26 00:45:49;;;;;;;;;0.00;0.00;;;;;;;;4744137;29;28591;-93
2022/10/26 00:48:20;;;;;;;;;0.00;0.00;;;;;;;;4752419;29;28926;-93
2022/10/26 00:50:46;;;;;;;;;0.00;0.00;;;;;;;;4752435;29;28590;-93
2022/10/26 00:53:12;;;;;;;;;0.00;0.00;;;;;;;;4752311;29;30436;-92
2022/10/26 00:55:40;;;;;;;;;0.00;0.00;;;;;;;;4751877;29;29166;-93
2022/10/26 00:58:07;;;;;;;;;0.00;0.00;;;;;;;;4752546;29;28379;-94
2022/10/26 01:00:33;;;;;;;;;0.00;0.00;;;;;;;;4761711;29;28536;-92
2022/10/26 01:03:00;;;;;;;;;0.00;0.00;;;;;;;;4734533;30;30084;-92
2022/10/26 01:05:26;;;;;;;;;0.00;0.00;;;;;;;;4734266;30;29609;-92
2022/10/26 01:07:52;;;;;;;;;28.67;27.00;;;;;;;;4734006;30;28459;-92
2022/10/26 01:10:18;;;;;;;;;0.00;0.00;;;;;;;;4734005;30;28551;-92
2022/10/26 01:12:43;;;;;;;;;0.00;0.00;;;;;;;;4734394;30;31326;-92
2022/10/26 01:15:09;;;;;;;;;0.00;0.00;;;;;;;;4734249;30;29186;-92
2022/10/26 01:17:57;;;;;;;;;0.00;0.00;;;;;;;;4733156;30;28643;-93
2022/10/26 01:20:29;;;;;;;;;0.00;0.00;;;;;;;;4724949;30;28676;-93
2022/10/26 01:22:54;;;;;;;;;0.00;0.00;;;;;;;;4743218;29;30905;-93
2022/10/26 01:25:38;;;;;;;;;0.00;0.00;;;;;;;;4751104;29;28555;-92
2022/10/26 01:28:10;;;;;;;;;0.00;0.00;;;;;;;;4752041;29;28296;-92
2022/10/26 01:30:38;;;;;;;;;0.00;0.00;;;;;;;;4743858;30;28711;-93
2022/10/26 01:33:22;;;;;;;;;0.00;0.00;;;;;;;;4734357;30;30271;-93
2022/10/26 01:35:47;;;;;;;;;0.00;0.00;;;;;;;;4734125;29;29729;-93
2022/10/26 01:38:25;;;;;;;;;0.00;0.00;;;;;;;;4763494;29;27742;-93
2022/10/26 01:40:57;;;;;;;;;0.00;0.00;;;;;;;;4752010;29;28251;-92
2022/10/26 01:43:24;;;;;;;;;0.00;0.00;;;;;;;;4751507;29;30033;-91
2022/10/26 01:45:51;;;;;;;;;0.00;0.00;;;;;;;;4741438;30;28704;-91
2022/10/26 01:48:18;;;;;;;;;0.00;0.00;;;;;;;;4733492;30;28434;-92
2022/10/26 01:50:45;;;;;;;;;0.00;0.00;;;;;;;;4733073;30;28537;-92
2022/10/26 01:53:11;;;;;;;;;0.00;0.00;;;;;;;;4733836;30;30268;-92
2022/10/26 01:55:42;;;;;;;;;0.00;0.00;;;;;;;;4748773;29;28014;-92
2022/10/26 01:58:11;;;;;;;;;0.00;0.00;;;;;;;;4733842;30;28585;-91
2022/10/26 02:00:40;;;;;;;;;0.00;0.00;;;;;;;;4733253;30;27929;-92
2022/10/26 02:03:18;;;;;;;;;0.00;0.00;;;;;;;;4733675;30;30095;-93
2022/10/26 02:05:43;;;;;;;;;0.00;0.00;;;;;;;;4733590;30;28835;-93
2022/10/26 02:08:20;;;;;;;;;0.00;0.00;;;;;;;;4743864;30;28469;-92
2022/10/26 02:10:58;;;;;;;;;0.00;0.00;;;;;;;;4748061;29;28573;-92
2022/10/26 02:13:27;;;;;;;;;0.00;0.00;;;;;;;;4733524;30;30143;-92
2022/10/26 02:15:54;;;;;;;;;0.00;0.00;;;;;;;;4733190;30;28615;-91
2022/10/26 02:18:19;;;;;;;;;0.00;0.00;;;;;;;;4733058;30;28516;-91
2022/10/26 02:20:49;;;;;;;;;0.00;0.00;;;;;;;;4732764;30;28615;-91
2022/10/26 02:23:15;;;;;;;;;0.00;0.00;;;;;;;;4733100;30;30240;-91
2022/10/26 02:25:45;;;;;;;;;0.00;0.00;;;;;;;;4732703;30;29593;-92
2022/10/26 02:28:12;;;;;;;;;0.00;0.00;;;;;;;;4733135;30;28522;-92
2022/10/26 02:30:39;;;;;;;;;0.00;0.00;;;;;;;;4749179;30;28459;-93
2022/10/26 02:33:10;;;;;;;;;0.00;0.00;;;;;;;;4741082;29;31086;-93
2022/10/26 02:35:37;;;;;;;;;0.00;0.00;;;;;;;;4750494;29;29078;-93
2022/10/26 02:38:04;;;;;;;;;0.00;0.00;;;;;;;;4766976;29;27797;-91
2022/10/26 02:40:31;;;;;;;;;0.00;0.00;;;;;;;;4750341;29;28725;-92
2022/10/26 02:42:59;;;;;;;;;0.00;0.00;;;;;;;;4751039;29;30021;-92
2022/10/26 02:45:26;;;;;;;;;0.00;0.00;;;;;;;;4750032;29;28662;-92
2022/10/26 02:47:52;;;;;;;;;0.00;0.00;;;;;;;;4751404;29;28626;-91
2022/10/26 02:50:19;;;;;;;;;0.00;0.00;;;;;;;;4750280;29;28432;-92
2022/10/26 02:53:08;;;;;;;;;0.00;0.00;;;;;;;;4750483;29;29787;-91
2022/10/26 02:55:39;;;;;;;;;0.00;0.00;;;;;;;;4678711;30;28996;-92
2022/10/26 02:58:07;;;;;;;;;0.00;0.00;;;;;;;;4662694;30;28382;-92
2022/10/26 03:00:32;;;;;;;;;0.00;0.00;;;;;;;;4685841;30;28491;-92
2022/10/26 03:02:58;;;;;;;;;0.00;0.00;;;;;;;;4676245;30;31007;-92
2022/10/26 03:05:25;;;;;;;;;0.00;0.00;;;;;;;;4676274;30;28736;-91
2022/10/26 03:07:50;;;;;;;;;0.00;0.00;;;;;;;;4675999;30;28626;-92
2022/10/26 03:10:15;;;;;;;;;0.00;0.00;;;;;;;;4677135;30;28575;-90
2022/10/26 03:12:40;;;;;;;;;0.00;0.00;;;;;;;;4679137;30;31279;-92
2022/10/26 03:15:06;;;;;;;;;0.00;0.00;;;;;;;;4693276;30;29820;-93
2022/10/26 03:17:31;;;;;;;;;0.00;0.00;;;;;;;;4693557;30;28546;-92
2022/10/26 03:19:56;;;;;;;;;0.00;0.00;;;;;;;;4693681;30;28499;-92
2022/10/26 03:22:22;;;;;;;;;0.00;0.00;;;;;;;;4694393;30;29290;-92
2022/10/26 03:24:47;;;;;;;;;0.00;0.00;;;;;;;;4692672;30;28486;-93
2022/10/26 03:27:13;;;;;;;;;0.00;0.00;;;;;;;;4693872;30;28727;-92
2022/10/26 03:29:38;;;;;;;;;0.00;0.00;;;;;;;;4673734;30;28498;-92
2022/10/26 03:32:04;;;;;;;;;0.00;0.00;;;;;;;;4694772;30;30033;-92
2022/10/26 03:34:29;;;;;;;;;0.00;0.00;;;;;;;;4732368;30;28892;-93
2022/10/26 03:36:54;;;;;;;;;0.00;0.00;;;;;;;;4748298;30;28387;-92
2022/10/26 03:39:19;;;;;;;;;0.00;0.00;;;;;;;;4731966;30;28633;-92
2022/10/26 03:41:44;;;;;;;;;0.00;0.00;;;;;;;;4735195;30;29997;-92
2022/10/26 03:44:10;;;;;;;;;0.00;0.00;;;;;;;;4752622;29;28667;-92
2022/10/26 03:46:35;;;;;;;;;0.00;0.00;;;;;;;;4768840;29;28410;-92
2022/10/26 03:49:00;;;;;;;;;0.00;0.00;;;;;;;;4768749;29;28635;-92
2022/10/26 03:51:26;;;;;;;;;0.00;0.00;;;;;;;;4752742;29;30128;-92
2022/10/26 03:53:52;;;;;;;;;0.00;0.00;;;;;;;;4752545;29;29504;-90
2022/10/26 03:56:17;;;;;;;;;0.00;0.00;;;;;;;;4752393;29;28504;-93
2022/10/26 03:58:42;;;;;;;;;0.00;0.00;;;;;;;;4752631;29;28469;-91
2022/10/26 04:01:07;;;;;;;;;0.00;0.00;;;;;;;;4752856;29;29861;-92
2022/10/26 04:03:33;;;;;;;;;0.00;0.00;;;;;;;;4745842;29;28481;-92
2022/10/26 04:06:02;;;;;;;;;0.00;0.00;;;;;;;;4752778;29;28546;-93
2022/10/26 04:08:27;;;;;;;;;0.00;0.00;;;;;;;;4749857;30;28510;-92
2022/10/26 04:10:52;;;;;;;;;0.00;0.00;;;;;;;;4734654;30;29940;-93
2022/10/26 04:13:18;;;;;;;;;0.00;0.00;;;;;;;;4735298;30;28788;-92
2022/10/26 04:15:43;;;;;;;;;0.00;0.00;;;;;;;;4734265;30;28470;-91
2022/10/26 04:18:08;;;;;;;;;0.00;0.00;;;;;;;;4740425;29;28664;-91
2022/10/26 04:20:35;;;;;;;;;0.00;0.00;;;;;;;;4768793;29;29436;-92
2022/10/26 04:23:02;;;;;;;;;0.00;0.00;;;;;;;;4752590;29;28688;-91
2022/10/26 04:25:28;;;;;;;;;0.00;0.00;;;;;;;;4752429;29;28495;-92
2022/10/26 04:27:53;;;;;;;;;0.00;0.00;;;;;;;;4752898;29;28439;-93
2022/10/26 04:30:18;;;;;;;;;0.00;0.00;;;;;;;;4746297;30;29472;-93
2022/10/26 04:32:44;;;;;;;;;0.00;0.00;;;;;;;;4739293;29;28582;-92
2022/10/26 04:35:09;;;;;;;;;0.00;0.00;;;;;;;;4752678;29;28610;-93
2022/10/26 04:37:34;;;;;;;;;0.00;0.00;;;;;;;;4741341;30;28481;-92
2022/10/26 04:39:59;;;;;;;;;0.00;0.00;;;;;;;;4734462;30;29859;-92
2022/10/26 04:42:24;;;;;;;;;0.00;0.00;;;;;;;;4734935;30;28628;-93
2022/10/26 04:44:50;;;;;;;;;0.00;0.00;;;;;;;;4734381;30;28600;-92
2022/10/26 04:47:15;;;;;;;;;0.00;0.00;;;;;;;;4734821;30;27913;-91
2022/10/26 04:49:40;;;;;;;;;0.00;0.00;;;;;;;;4750154;30;28532;-92
2022/10/26 04:52:05;;;;;;;;;0.00;0.00;;;;;;;;4734675;30;28970;-92
2022/10/26 04:54:31;;;;;;;;;0.00;0.00;;;;;;;;4750110;30;28427;-91
2022/10/26 04:56:56;;;;;;;;;0.00;0.00;;;;;;;;4745828;29;28478;-93
2022/10/26 04:59:21;;;;;;;;;0.00;0.00;;;;;;;;4751721;29;29876;-92
2022/10/26 05:01:46;;;;;;;;;0.00;0.00;;;;;;;;4752232;29;28877;-93
2022/10/26 05:04:11;;;;;;;;;0.00;0.00;;;;;;;;4751791;29;28630;-93
2022/10/26 05:06:37;;;;;;;;;0.00;0.00;;;;;;;;4768430;29;28508;-92
2022/10/26 05:09:03;;;;;;;;;0.00;0.00;;;;;;;;4751732;29;30206;-92
2022/10/26 05:11:28;;;;;;;;;0.00;0.00;;;;;;;;4741712;29;28975;-92
2022/10/26 05:13:53;;;;;;;;;0.00;0.00;;;;;;;;4735407;30;28638;-92
2022/10/26 05:16:18;;;;;;;;;0.00;0.00;;;;;;;;4734383;30;28379;-92
2022/10/26 05:18:46;;;;;;;;;0.00;0.00;;;;;;;;4730844;30;30286;-92
2022/10/26 05:21:18;;;;;;;;;0.00;0.00;;;;;;;;4731546;30;28655;-91
2022/10/26 05:23:43;;;;;;;;;0.00;0.00;;;;;;;;4731683;30;28501;-90
2022/10/26 05:26:08;;;;;;;;;0.00;0.00;;;;;;;;4735975;30;28462;-91
2022/10/26 05:28:33;;;;;;;;;0.00;0.00;;;;;;;;4733003;30;30115;-92
2022/10/26 05:30:59;;;;;;;;;0.00;0.00;;;;;;;;4742196;30;28480;-92
2022/10/26 05:33:24;;;;;;;;;0.00;0.00;;;;;;;;4748290;30;28489;-91
2022/10/26 05:35:52;;;;;;;;;0.00;0.00;;;;;;;;4743744;30;28515;-92
2022/10/26 05:38:17;;;;;;;;;0.00;0.00;;;;;;;;4746239;30;29831;-91
2022/10/26 05:40:46;;;;;;;;;0.00;0.00;;;;;;;;4737330;30;28573;-91
2022/10/26 05:43:11;;;;;;;;;0.00;0.00;;;;;;;;4731909;30;28534;-93
2022/10/26 05:45:38;;;;;;;;;0.00;0.00;;;;;;;;4733739;30;28569;-91
2022/10/26 05:48:03;;;;;;;;;0.00;0.00;;;;;;;;4741200;30;29297;-92
2022/10/26 05:50:28;;;;;;;;;0.00;0.00;;;;;;;;4731903;30;28549;-91
2022/10/26 05:52:54;;;;;;;;;0.00;0.00;;;;;;;;4730423;30;28464;-92
2022/10/26 05:55:20;;;;;;;;;0.00;0.00;;;;;;;;4730705;30;28788;-92
2022/10/26 05:57:45;;;;;;;;;0.00;0.00;;;;;;;;4730245;30;30189;-92
2022/10/26 06:00:21;;;;;;;;;0.00;0.00;;;;;;;;4729875;30;29115;-92
2022/10/26 06:03:00;;;;;;;;;0.00;0.00;;;;;;;;4729849;30;28392;-92
2022/10/26 06:05:26;;;;;;;;;0.00;0.00;;;;;;;;4729929;30;27933;-92
2022/10/26 06:07:51;;;;;;;;;0.00;0.00;;;;;;;;4741605;30;30888;-92
2022/10/26 06:10:17;;;;;;;;;0.00;0.00;;;;;;;;4732605;30;29849;-91
2022/10/26 06:12:43;;;;;;;;;0.00;0.00;;;;;;;;4748879;30;28363;-92
2022/10/26 06:15:11;;;;;;;;;0.00;0.00;;;;;;;;4747463;30;28489;-92
2022/10/26 06:17:55;;;;;;;;;0.00;0.00;;;;;;;;4747978;30;30005;-92
2022/10/26 06:20:30;;;;;;;;;0.00;0.00;;;;;;;;4747965;30;29122;-91
2022/10/26 06:23:30;;;;;;;;;0.00;0.00;;;;;;;;4747732;30;28417;-91
2022/10/26 06:26:13;;;;;;;;;0.00;0.00;;;;;;;;4655221;30;28496;-86
2022/10/26 06:29:04;;;;;;;;;0.00;0.00;;;;;;;;4675863;30;29419;-88
2022/10/26 06:31:29;;;;;;;;;0.00;0.00;;;;;;;;4641179;30;28609;-88
2022/10/26 06:33:57;;;;;;;;;0.00;0.00;;;;;;;;4641360;30;28836;-87
2022/10/26 06:36:24;;;;;;;;;0.00;0.00;;;;;;;;4627445;30;28563;-87
2022/10/26 06:38:58;;;;;;;;;0.00;0.00;;;;;;;;4642064;30;29369;-91
2022/10/26 06:41:24;;;;;;;;;0.00;0.00;;;;;;;;4625355;30;29162;-90
2022/10/26 06:43:51;;;;;;;;;0.00;0.00;;;;;;;;4615327;30;28590;-90
2022/10/26 06:46:34;;;;;;;;;0.00;0.00;;;;;;;;4637790;30;28514;-91
2022/10/26 06:49:13;;;;;;;;;0.00;0.00;;;;;;;;4620344;30;29851;-90
2022/10/26 06:51:45;;;;;;;;;0.00;0.00;;;;;;;;4624422;30;28601;-90
2022/10/26 06:54:15;;;;;;;;;0.00;0.00;;;;;;;;4632921;30;28594;-90
2022/10/26 06:56:41;;;;;;;;;0.00;0.00;;;;;;;;4635497;30;28504;-90
2022/10/26 06:59:07;;;;;;;;;0.00;0.00;;;;;;;;4621844;30;31867;-90
2022/10/26 07:01:33;;;;;;;;;0.00;0.00;;;;;;;;4653318;30;29906;-90
2022/10/26 07:03:58;;;;;;;;;0.00;0.00;;;;;;;;4657104;30;28568;-90
2022/10/26 07:06:23;;;;;;;;;0.00;0.00;;;;;;;;4661151;30;28524;-89
2022/10/26 07:08:49;;;;;;;;;0.00;0.00;;;;;;;;4719994;30;31291;-90
2022/10/26 07:11:14;;;;;;;;;0.00;0.00;;;;;;;;4739956;30;28426;-90
2022/10/26 07:13:39;;;;;;;;;0.00;0.00;;;;;;;;4733205;30;28724;-90
2022/10/26 07:16:04;;;;;;;;;1.00;1.00;;;;;;;;4731865;30;28486;-90
2022/10/26 07:18:30;;;;;;;;;0.00;0.00;;;;;;;;4728124;30;29801;-91
2022/10/26 07:20:57;;;;;;;;;0.00;0.00;;;;;;;;4745484;30;28431;-89
2022/10/26 07:23:22;;;;;;;;;0.00;0.00;;;;;;;;4743733;30;28466;-89
2022/10/26 07:25:47;;;;;;;;;0.00;0.00;;;;;;;;4742869;30;28495;-90
2022/10/26 07:28:12;;;;;;;;;0.00;0.00;;;;;;;;4738581;30;28643;-90
2022/10/26 07:30:38;;;;;;;;;0.00;0.00;;;;;;;;4717274;30;28784;-90
2022/10/26 07:33:09;;;;;;;;;0.00;0.00;;;;;;;;4738113;30;28470;-91
2022/10/26 07:35:34;;;;;;;;;0.00;0.00;;;;;;;;4733475;30;28676;-91
2022/10/26 07:37:59;;;;;;;;;0.00;0.00;;;;;;;;4736846;30;28556;-91
2022/10/26 07:40:25;;;;;;;;;0.00;0.00;;;;;;;;4742569;29;28601;-92
2022/10/26 07:42:51;;;;;;;;;0.00;0.00;;;;;;;;4740685;30;28795;-91
2022/10/26 07:45:16;;;;;;;;;0.00;0.00;;;;;;;;4742140;30;28503;-92
2022/10/26 07:47:41;;;;;;;;;0.00;0.00;;;;;;;;4725985;30;30197;-90
2022/10/26 07:50:07;;;;;;;;;0.00;0.00;;;;;;;;4738724;30;28707;-89
2022/10/26 07:52:34;;;;;;;;;0.00;0.00;;;;;;;;4730735;30;28807;-90
2022/10/26 07:54:59;;;;;;;;;0.00;0.00;;;;;;;;4722322;30;28620;-91
2022/10/26 07:57:25;;;;;;;;;9.00;9.00;;;;;;;;4742934;30;30021;-96
2022/10/26 07:59:50;;;;;;;;;0.00;0.00;;;;;;;;4743477;30;28366;-92
2022/10/26 08:02:15;;;;;;;;;0.00;0.00;;;;;;;;4737383;30;28669;-95
2022/10/26 08:04:40;;;;;;;;;0.00;0.00;;;;;;;;4741685;30;27879;-93
2022/10/26 08:07:05;;;;;;;;;0.00;0.00;;;;;;;;4736520;30;30190;-93
2022/10/26 08:09:30;;;;;;;;;0.00;0.00;;;;;;;;4741474;30;27863;-93
2022/10/26 08:11:56;;;;;;;;;0.00;0.00;;;;;;;;4742000;30;28467;-94
2022/10/26 08:14:21;;;;;;;;;0.00;0.00;;;;;;;;4739081;30;28314;-93
2022/10/26 08:16:46;;;;;;;;;0.00;0.00;;;;;;;;4741389;30;29357;-93
2022/10/26 08:19:12;;;;;;;;;0.00;0.00;;;;;;;;4746844;30;28454;-94
2022/10/26 08:21:37;;;;;;;;;0.00;0.00;;;;;;;;4742343;30;28466;-95
2022/10/26 08:24:02;;;;;;;;;0.00;0.00;;;;;;;;4739504;30;27924;-94
2022/10/26 08:26:28;;;;;;;;;0.00;0.00;;;;;;;;4736292;30;29782;-94
2022/10/26 08:28:53;;;;;;;;;0.00;0.00;;;;;;;;4739505;30;28561;-94
2022/10/26 08:31:18;;;;;;;;;0.00;0.00;;;;;;;;4738967;30;28809;-95
2022/10/26 08:33:43;;;;;;;;;0.00;0.00;;;;;;;;4743897;30;28516;-94
2022/10/26 08:36:08;;;;;;;;;0.00;0.00;;;;;;;;4741191;30;30638;-96
2022/10/26 08:38:34;;;;;;;;;0.00;0.00;;;;;;;;4743607;30;28561;-95
2022/10/26 08:41:04;;;;;;;;;0.00;0.00;;;;;;;;4746135;30;28455;-92
2022/10/26 08:43:48;;;;;;;;;0.00;0.00;;;;;;;;4741855;30;27967;-95
2022/10/26 08:46:31;;;;;;;;;0.00;0.00;;;;;;;;4749909;30;28470;-96
2022/10/26 08:49:18;;;;;;;;;0.00;0.00;;;;;;;;4744487;29;28375;-96
2022/10/26 08:51:43;;;;;;;;;0.00;0.00;;;;;;;;4743387;30;28512;-96
2022/10/26 08:54:28;;;;;;;;;0.00;0.00;;;;;;;;4733331;29;28540;-96
2022/10/26 08:57:14;;;;;;;;;0.00;0.00;;;;;;;;4743649;29;30080;-94
2022/10/26 08:59:42;;;;;;;;;0.00;0.00;;;;;;;;4744849;30;28887;-96
2022/10/26 09:02:15;;;;;;;;;0.00;0.00;;;;;;;;4745010;29;28566;-96
2022/10/26 09:04:41;;;;;;;;;0.00;0.00;;;;;;;;4738453;30;28615;-96
2022/10/26 09:07:21;;;;;;;;;0.00;0.00;;;;;;;;4738660;30;30908;-95
2022/10/26 09:09:49;;;;;;;;;0.00;0.00;;;;;;;;4746820;30;28216;-96
2022/10/26 09:12:26;;;;;;;;;0.00;0.00;;;;;;;;4745594;30;28509;-95
2022/10/26 09:15:07;;;;;;;;;0.00;0.00;;;;;;;;4736650;30;29042;-92
2022/10/26 09:17:50;;;;;;;;;0.00;0.00;;;;;;;;4733928;30;29822;-93
2022/10/26 09:20:45;;;;;;;;;0.00;0.00;;;;;;;;4718440;30;28794;-94
2022/10/26 09:23:19;;;;;;;;;0.00;0.00;;;;;;;;4724916;30;28656;-94
2022/10/26 09:25:48;;;;;;;;;0.00;0.00;;;;;;;;4737635;30;27990;-93
2022/10/26 09:28:15;;;;;;;;;0.00;0.00;;;;;;;;4735582;30;29491;-93
2022/10/26 09:30:43;;;;;;;;;0.00;0.00;;;;;;;;4741321;30;29386;-93
2022/10/26 09:33:14;;;;;;;;;0.00;0.00;;;;;;;;4738116;30;28546;-91
2022/10/26 09:35:51;;;;;;;;;4.67;4.67;;;;;;;;4743830;29;28561;-89
2022/10/26 09:38:16;;;;;;;;;0.00;0.00;;;;;;;;4741789;30;30565;-89
2022/10/26 09:40:47;;;;;;;;;0.00;0.00;;;;;;;;4737618;30;28602;-91
2022/10/26 09:43:14;;;;;;;;;0.00;0.00;;;;;;;;4733323;30;28684;-91
2022/10/26 09:45:42;;;;;;;;;0.00;0.00;;;;;;;;4738546;30;28977;-91
2022/10/26 09:48:14;;;;;;;;;0.00;0.00;;;;;;;;4745065;29;28413;-89
2022/10/26 09:50:43;;;;;;;;;0.00;0.00;;;;;;;;4739502;29;28525;-90
2022/10/26 09:53:08;;;;;;;;;0.00;0.00;;;;;;;;4742627;30;30236;-91
2022/10/26 09:55:38;;;;;;;;;0.00;0.00;;;;;;;;4736113;30;28531;-91
2022/10/26 09:58:05;;;;;;;;;0.00;0.00;;;;;;;;4743229;30;29866;-91
2022/10/26 10:00:32;;;;;;;;;0.00;0.00;;;;;;;;4731783;30;29822;-90
2022/10/26 10:02:57;;;;;;;;;0.00;0.00;;;;;;;;4741750;30;28540;-88
2022/10/26 10:05:35;;;;;;;;;0.00;0.00;;;;;;;;4735681;30;29306;-89
2022/10/26 10:08:18;;;;;;;;;0.00;0.00;;;;;;;;4742526;30;28540;-90
2022/10/26 10:10:58;;;;;;;;;0.00;0.00;;;;;;;;4733731;30;28550;-87
2022/10/26 10:13:25;;;;;;;;;0.00;0.00;;;;;;;;4723426;30;28585;-88
2022/10/26 10:15:52;;;;;;;;;0.00;0.00;;;;;;;;4736222;29;28689;-88
2022/10/26 10:18:18;;;;;;;;;0.00;0.00;;;;;;;;4733013;30;30261;-89
2022/10/26 10:20:49;;;;;;;;;0.00;0.00;;;;;;;;4735125;30;28528;-87
2022/10/26 10:23:23;;;;;;;;;0.00;0.00;;;;;;;;4739431;30;28477;-94
2022/10/26 10:25:56;;;;;;;;;0.00;0.00;;;;;;;;4739311;30;28420;-92
2022/10/26 10:28:23;;;;;;;;;0.00;0.00;;;;;;;;4739543;30;28671;-88
2022/10/26 10:30:54;;;;;;;;;0.00;0.00;;;;;;;;4738928;30;28702;-86
2022/10/26 10:33:19;;;;;;;;;0.00;0.00;;;;;;;;4734816;30;28434;-87
2022/10/26 10:35:49;;;;;;;;;0.00;0.00;;;;;;;;4742747;30;28846;-87
2022/10/26 10:38:17;;;;;;;;;0.00;0.00;;;;;;;;4731565;30;29566;-86
2022/10/26 10:40:49;;;;;;;;;0.00;0.00;;;;;;;;4737039;30;29569;-87
2022/10/26 10:43:14;;;;;;;;;0.00;0.00;;;;;;;;4734549;30;28435;-86
2022/10/26 10:45:40;;;;;;;;;0.00;0.00;;;;;;;;4743744;30;29570;-84
2022/10/26 10:48:11;;;;;;;;;0.00;0.00;;;;;;;;4741073;30;28392;-85
2022/10/26 10:50:37;;;;;;;;;0.00;0.00;;;;;;;;4736601;30;28454;-91
2022/10/26 10:53:13;;;;;;;;;0.00;0.00;;;;;;;;4736532;30;28579;-85
2022/10/26 10:55:39;;;;;;;;;0.00;0.00;;;;;;;;4741601;30;28402;-86
2022/10/26 10:58:20;;;;;;;;;0.00;0.00;;;;;;;;4739185;30;28505;-87
2022/10/26 11:00:47;;;;;;;;;0.00;0.00;;;;;;;;4734940;30;28508;-87
2022/10/26 11:03:31;;;;;;;;;0.00;0.00;;;;;;;;4729933;30;28546;-87
2022/10/26 11:06:00;;;;;;;;;0.00;0.00;;;;;;;;4733294;30;28622;-89
2022/10/26 11:08:32;;;;;;;;;0.00;0.00;;;;;;;;4740665;30;28674;-88
2022/10/26 11:11:00;;;;;;;;;0.00;0.00;;;;;;;;4752483;29;28578;-88
2022/10/26 11:13:36;;;;;;;;;0.00;0.00;;;;;;;;4730934;30;28441;-88
2022/10/26 11:16:12;;;;;;;;;0.00;0.00;;;;;;;;4744174;30;28526;-87
2022/10/26 11:18:44;;;;;;;;;0.00;0.00;;;;;;;;4750653;29;28785;-87
2022/10/26 11:21:16;;;;;;;;;0.00;0.00;;;;;;;;4736384;30;28432;-88
2022/10/26 11:24:05;;;;;;;;;0.00;0.00;;;;;;;;4753148;29;28457;-88
2022/10/26 11:26:35;;;;;;;;;0.00;0.00;;;;;;;;4757602;29;28471;-87
2022/10/26 11:29:04;;;;;;;;;0.00;0.00;;;;;;;;4755081;29;28527;-87
2022/10/26 11:31:42;;;;;;;;;0.00;0.00;;;;;;;;4737078;29;28399;-87
2022/10/26 11:34:07;;;;;;;;;0.00;0.00;;;;;;;;4745577;29;28411;-87
2022/10/26 11:36:34;;;;;;;;;0.00;0.00;;;;;;;;4756415;29;28394;-87
2022/10/26 11:39:15;;;;;;;;;0.00;0.00;;;;;;;;4738733;30;30240;-91
2022/10/26 11:41:48;;;;;;;;;0.00;0.00;;;;;;;;4754326;29;30236;-87
2022/10/26 11:44:33;;;;;;;;;0.00;0.00;;;;;;;;4752453;29;28569;-87
2022/10/26 11:47:07;;;;;;;;;0.00;0.00;;;;;;;;4749375;29;28495;-86
2022/10/26 11:49:40;;;;;;;;;0.00;0.00;;;;;;;;4760712;29;28569;-87
2022/10/26 11:52:29;;;;;;;;;0.00;0.00;;;;;;;;4738806;30;28827;-87
2022/10/26 11:55:00;;;;;;;;;0.00;0.00;;;;;;;;4752917;29;28447;-87
2022/10/26 11:57:27;;;;;;;;;0.00;0.00;;;;;;;;4744343;30;28683;-86
2022/10/26 11:59:59;;;;;;;;;0.00;0.00;;;;;;;;4737916;29;30060;-87
2022/10/26 12:02:25;;;;;;;;;0.00;0.00;;;;;;;;4742542;29;28541;-86
2022/10/26 12:04:58;;;;;;;;;0.00;0.00;;;;;;;;4730751;29;28607;-87
2022/10/26 12:07:26;;;;;;;;;0.00;0.00;;;;;;;;4731287;29;28657;-87
2022/10/26 12:09:51;;;;;;;;;0.00;0.00;;;;;;;;4747207;29;28852;-87
2022/10/26 12:12:39;;;;;;;;;0.00;0.00;;;;;;;;4748099;29;28552;-87
2022/10/26 12:15:13;;;;;;;;;0.00;0.00;;;;;;;;4746854;29;28861;-87
2022/10/26 12:17:45;;;;;;;;;0.00;0.00;;;;;;;;4745511;29;28604;-87
2022/10/26 12:20:10;;;;;;;;;0.00;0.00;;;;;;;;4743813;29;29922;-87
2022/10/26 12:22:38;;;;;;;;;0.00;0.00;;;;;;;;4746634;29;29879;-86
2022/10/26 12:25:06;;;;;;;;;0.00;0.00;;;;;;;;4759971;29;28526;-87
2022/10/26 12:27:37;;;;;;;;;0.00;0.00;;;;;;;;4754099;29;28450;-87
2022/10/26 12:30:18;;;;;;;;;0.00;0.00;;;;;;;;4741289;29;29958;-87
2022/10/26 12:32:43;;;;;;;;;0.00;0.00;;;;;;;;4760191;29;29002;-87
2022/10/26 12:35:27;;;;;;;;;0.00;0.00;;;;;;;;4736604;29;28490;-87
2022/10/26 12:37:52;;;;;;;;;0.00;0.00;;;;;;;;4745925;29;28459;-87
2022/10/26 12:40:33;;;;;;;;;0.00;0.00;;;;;;;;4740318;29;29665;-87
2022/10/26 12:43:13;;;;;;;;;0.00;0.00;;;;;;;;4761076;29;43164;-87
2022/10/26 12:45:39;;;;;;;;;0.00;0.00;;;;;;;;4742608;29;28554;-87
2022/10/26 12:48:19;;;;;;;;;0.00;0.00;;;;;;;;4758234;29;28522;-88
2022/10/26 12:50:44;;;;;;;;;0.00;0.00;;;;;;;;4740253;29;30214;-88
2022/10/26 12:53:12;;;;;;;;;0.00;0.00;;;;;;;;4741813;30;28747;-87
2022/10/26 12:55:37;;;;;;;;;0.00;0.00;;;;;;;;4758290;29;28441;-87
2022/10/26 12:58:12;;;;;;;;;0.00;0.00;;;;;;;;4735793;30;28430;-87
2022/10/26 13:00:40;;;;;;;;;0.00;0.00;;;;;;;;4760232;29;28567;-87
2022/10/26 13:03:11;;;;;;;;;0.00;0.00;;;;;;;;4759736;29;28628;-87
2022/10/26 13:06:02;;;;;;;;;0.00;0.00;;;;;;;;4739540;29;28600;-87
2022/10/26 13:08:37;;;;;;;;;0.00;0.00;;;;;;;;4753982;29;28396;-87
2022/10/26 13:11:15;;;;;;;;;0.00;0.00;;;;;;;;4740331;30;30950;-87
2022/10/26 13:13:40;;;;;;;;;0.00;0.00;;;;;;;;4753523;29;28781;-87
2022/10/26 13:16:09;;;;;;;;;0.00;0.00;;;;;;;;4758839;29;28343;-87
2022/10/26 13:18:40;;;;;;;;;0.00;0.00;;;;;;;;4753841;29;28531;-87
2022/10/26 13:21:12;;;;;;;;;0.00;0.00;;;;;;;;4743290;30;30998;-87
2022/10/26 13:23:39;;;;;;;;;0.00;0.00;;;;;;;;4741897;29;28634;-88
2022/10/26 13:26:06;;;;;;;;;0.00;0.00;;;;;;;;4741560;29;28590;-88
2022/10/26 13:28:37;;;;;;;;;0.00;0.00;;;;;;;;4752587;29;28541;-89
2022/10/26 13:31:11;;;;;;;;;0.00;0.00;;;;;;;;4743334;29;30872;-88
2022/10/26 13:33:38;;;;;;;;;0.00;0.00;;;;;;;;4740379;29;28580;-88
2022/10/26 13:36:27;;;;;;;;;0.00;0.00;;;;;;;;4756263;29;28474;-88
2022/10/26 13:38:52;;;;;;;;;0.00;0.00;;;;;;;;4747487;29;28546;-88
2022/10/26 13:41:35;;;;;;;;;0.00;0.00;;;;;;;;4745623;29;31076;-88
2022/10/26 13:44:13;;;;;;;;;0.00;0.00;;;;;;;;4740118;30;29016;-89
2022/10/26 13:46:39;;;;;;;;;0.00;0.00;;;;;;;;4737220;29;28685;-88
2022/10/26 13:49:12;;;;;;;;;0.00;0.00;;;;;;;;4733204;29;28603;-88
2022/10/26 13:51:39;;;;;;;;;0.00;0.00;;;;;;;;4735748;29;31280;-88
2022/10/26 13:54:21;;;;;;;;;0.00;0.00;;;;;;;;4739928;30;29716;-88
2022/10/26 13:56:56;;;;;;;;;0.00;0.00;;;;;;;;4748655;29;28434;-88
2022/10/26 13:59:21;;;;;;;;;0.00;0.00;;;;;;;;4735440;29;28533;-88
2022/10/26 14:02:04;;;;;;;;;0.00;0.00;;;;;;;;4744418;29;29800;-88
2022/10/26 14:04:29;;;;;;;;;0.00;0.00;;;;;;;;4745245;29;28989;-88
2022/10/26 14:06:54;;;;;;;;;0.00;0.00;;;;;;;;4736198;29;28607;-88
2022/10/26 14:09:20;;;;;;;;;0.00;0.00;;;;;;;;4741991;29;28557;-88
2022/10/26 14:11:53;;;;;;;;;0.00;0.00;;;;;;;;4743463;29;30966;-87
2022/10/26 14:14:20;;;;;;;;;0.00;0.00;;;;;;;;4742073;29;29387;-87
2022/10/26 14:16:47;;;;;;;;;0.00;0.00;;;;;;;;4742975;29;28403;-87
2022/10/26 14:19:20;;;;;;;;;0.00;0.00;;;;;;;;4738220;29;28572;-88
2022/10/26 14:21:48;;;;;;;;;0.00;0.00;;;;;;;;4737718;29;29946;-87
2022/10/26 14:24:21;;;;;;;;;0.00;0.00;;;;;;;;4738542;30;28873;-88
2022/10/26 14:26:46;;;;;;;;;0.00;0.00;;;;;;;;4758455;29;28478;-87
2022/10/26 14:29:16;;;;;;;;;0.00;0.00;;;;;;;;4751888;29;28470;-88
2022/10/26 14:31:41;;;;;;;;;0.00;0.00;;;;;;;;4754789;29;29586;-88
2022/10/26 14:34:08;;;;;;;;;0.00;0.00;;;;;;;;4740813;29;29536;-90
2022/10/26 14:36:37;;;;;;;;;0.00;0.00;;;;;;;;4748389;29;28521;-89
2022/10/26 14:39:15;;;;;;;;;0.00;0.00;;;;;;;;4754976;29;27876;-90
2022/10/26 14:41:41;;;;;;;;;0.00;0.00;;;;;;;;4761054;29;29523;-88
2022/10/26 14:44:13;;;;;;;;;0.00;0.00;;;;;;;;4747523;29;28842;-88
2022/10/26 14:46:42;;;;;;;;;0.00;0.00;;;;;;;;4753442;29;28475;-88
2022/10/26 14:49:15;;;;;;;;;0.00;0.00;;;;;;;;4759503;29;28544;-88
2022/10/26 14:51:40;;;;;;;;;0.00;0.00;;;;;;;;4739282;29;30182;-87
2022/10/26 14:54:18;;;;;;;;;0.00;0.00;;;;;;;;4730830;30;28830;-86
2022/10/26 14:56:43;;;;;;;;;0.00;0.00;;;;;;;;4757296;29;28858;-87